Time;durP1;ratioP1;P1;durP2;ratioP2;P2;SDS_P1;SDS_P2;PMS_P1;PMS_P2;Temp;Humidity;BMP_temperature;BMP_pressure;BME280_temperature;BME280_humidity;BME280_pressure;Samples;Min_cycle;Max_cycle;Signal;HPM_P1;HPM_P2
2022/09/19 00:01:11;;;;;;;;;;;;;;;10.24;100.00;98067.67;1677243;85;20149;-73
2022/09/19 00:03:40;;;;;;;;;;;;;;;10.23;100.00;98064.24;1677148;85;21182;-73
2022/09/19 00:06:09;;;;;;;;;;;;;;;10.24;100.00;98070.27;1677135;85;20209;-72
2022/09/19 00:08:36;;;;;;;;;;;;;;;10.23;100.00;98073.34;1677132;85;20433;-73
2022/09/19 00:11:03;;;;;;;;;;;;;;;10.23;100.00;98068.61;1677095;85;20654;-72
2022/09/19 00:13:31;;;;;;;;;;;;;;;10.20;100.00;98067.03;1677216;85;20134;-72
2022/09/19 00:15:58;;;;;;;;;;;;;;;10.19;100.00;98074.45;1677068;85;22127;-72
2022/09/19 00:18:26;;;;;;;;;;;;;;;10.17;100.00;98077.60;1677056;85;20170;-73
2022/09/19 00:20:52;;;;;;;;;;;;;;;10.16;100.00;98084.19;1677286;85;20429;-72
2022/09/19 00:26:07;;;;;;;;;;;;;;;10.17;100.00;98089.30;1677272;85;20141;-72
2022/09/19 00:28:33;;;;;;;;;;;;;;;10.18;100.00;98090.13;1676477;85;21753;-72
2022/09/19 00:31:00;;;;;;;;;;;;;;;10.17;100.00;98084.09;1677112;85;20153;-72
2022/09/19 00:33:28;;;;;;;;;;;;;;;10.17;100.00;98093.19;1677070;85;20213;-73
2022/09/19 00:35:55;;;;;;;;;;;;;;;10.18;100.00;98091.43;1661100;85;20462;-73
2022/09/19 00:38:23;;;;;;;;;;;;;;;10.16;100.00;98088.92;1654271;87;20199;-73
2022/09/19 00:40:49;;;;;;;;;;;;;;;10.18;100.00;98101.83;1654251;87;21205;-73
2022/09/19 00:43:17;;;;;;;;;;;;;;;10.17;100.00;98106.19;1654102;87;20170;-73
2022/09/19 00:45:44;;;;;;;;;;;;;;;10.16;100.00;98103.22;1654273;87;20190;-73
2022/09/19 00:48:11;;;;;;;;;;;;;;;10.17;100.00;98095.79;1654250;87;20175;-73
2022/09/19 00:50:38;;;;;;;;;;;;;;;10.18;100.00;98103.13;1654156;86;20216;-73
2022/09/19 00:53:09;;;;;;;;;;;;;;;10.17;100.00;98107.48;1654252;87;21154;-73
2022/09/19 00:55:37;;;;;;;;;;;;;;;10.16;100.00;98109.71;1634702;87;20248;-73
2022/09/19 00:58:16;;;;;;;;;;;;;;;10.16;100.00;98112.77;1654160;87;20187;-73
2022/09/19 01:00:42;;;;;;;;;;;;;;;10.16;100.00;98116.20;1654279;87;20212;-73
2022/09/19 01:03:09;;;;;;;;;;;;;;;10.16;100.00;98104.52;1654260;87;20199;-73
2022/09/19 01:05:45;;;;;;;;;;;;;;;10.14;100.00;98111.56;1654278;86;20891;-73
2022/09/19 01:08:43;;;;;;;;;;;;;;;10.14;100.00;98112.03;1647876;87;20518;-73
2022/09/19 01:11:22;;;;;;;;;;;;;;;10.13;100.00;98116.39;1654372;87;20475;-73
2022/09/19 01:14:11;;;;;;;;;;;;;;;10.14;100.00;98114.16;1654426;87;20552;-73
2022/09/19 01:16:47;;;;;;;;;;;;;;;10.14;100.00;98114.62;1654278;87;20175;-72
2022/09/19 01:19:35;;;;;;;;;;;;;;;10.13;100.00;98114.25;1654177;87;21154;-73
2022/09/19 01:22:24;;;;;;;;;;;;;;;10.12;100.00;98125.57;1654096;87;20175;-73
2022/09/19 01:24:56;;;;;;;;;;;;;;;10.12;100.00;98120.38;1654132;87;20216;-73
2022/09/19 01:28:02;;;;;;;;;;;;;;;10.11;100.00;98126.03;1638743;86;20765;-73
2022/09/19 01:30:30;;;;;;;;;;;;;;;10.09;100.00;98120.55;1654122;87;20192;-73
2022/09/19 01:33:06;;;;;;;;;;;;;;;10.08;100.00;98127.98;1654163;87;21159;-73
2022/09/19 01:35:34;;;;;;;;;;;;;;;10.08;100.00;98125.38;1654057;86;20167;-73
2022/09/19 01:38:07;;;;;;;;;;;;;;;10.07;100.00;98129.73;1654223;86;20195;-73
2022/09/19 01:40:34;;;;;;;;;;;;;;;10.07;100.00;98127.14;1654204;87;20196;-73
2022/09/19 01:43:02;;;;;;;;;;;;;;;10.08;100.00;98127.98;1654162;86;20203;-73
2022/09/19 01:45:38;;;;;;;;;;;;;;;10.07;100.00;98135.40;1654172;87;21155;-73
2022/09/19 01:48:27;;;;;;;;;;;;;;;10.09;100.00;98134.84;1654095;86;20171;-73
2022/09/19 01:50:59;;;;;;;;;;;;;;;10.08;100.00;98123.62;1647255;87;20175;-73
2022/09/19 01:53:53;;;;;;;;;;;;;;;10.08;100.00;98134.01;1654302;86;20188;-73
2022/09/19 01:56:52;;;;;;;;;;;;;;;10.07;100.00;98136.70;1651257;87;20179;-72
2022/09/19 01:59:47;;;;;;;;;;;;;;;10.08;100.00;98127.98;1654271;87;21178;-72
2022/09/19 02:02:34;;;;;;;;;;;;;;;10.09;100.00;98147.83;1654202;86;20451;-73
2022/09/19 02:05:14;;;;;;;;;;;;;;;10.11;100.00;98147.28;1635127;87;20212;-73
2022/09/19 02:08:00;;;;;;;;;;;;;;;10.12;100.00;98147.66;1634312;87;20203;-72
2022/09/19 02:10:32;;;;;;;;;;;;;;;10.14;100.00;98154.89;1654234;86;20196;-73
2022/09/19 02:12:59;;;;;;;;;;;;;;;10.16;100.00;98153.05;1652205;87;21956;-74
2022/09/19 02:16:25;;;;;;;;;;;;;;;10.16;100.00;98164.27;1652857;86;20146;-74
2022/09/19 02:19:12;;;;;;;;;;;;;;;10.16;100.00;98162.13;1654128;87;20182;-73
2022/09/19 02:21:48;;;;;;;;;;;;;;;10.13;100.00;98154.52;1654295;87;20487;-73
2022/09/19 02:24:17;;;;;;;;;;;;;;;10.11;100.00;98158.97;1654509;87;20463;-73
2022/09/19 02:26:44;;;;;;;;;;;;;;;10.08;100.00;98161.75;1654286;87;21184;-73
2022/09/19 02:29:12;;;;;;;;;;;;;;;10.03;100.00;98156.83;1654200;86;20195;-74
2022/09/19 02:31:39;;;;;;;;;;;;;;;9.97;100.00;98162.41;1654295;86;20187;-73
2022/09/19 02:34:06;;;;;;;;;;;;;;;9.91;100.00;98178.34;1654231;87;20175;-73
2022/09/19 02:36:42;;;;;;;;;;;;;;;9.86;100.00;98172.12;1654248;86;20451;-73
2022/09/19 02:39:16;;;;;;;;;;;;;;;9.85;100.00;98170.91;1654360;87;21167;-73
2022/09/19 02:42:08;;;;;;;;;;;;;;;9.84;100.00;98180.45;1651388;87;20502;-73
2022/09/19 02:44:52;;;;;;;;;;;;;;;9.84;100.00;98178.33;1639168;87;20183;-73
2022/09/19 02:47:24;;;;;;;;;;;;;;;9.85;100.00;98192.52;1654014;87;20892;-73
2022/09/19 02:49:54;;;;;;;;;;;;;;;9.84;100.00;98193.44;1654255;86;20203;-73
2022/09/19 02:52:28;;;;;;;;;;;;;;;9.87;100.00;98193.27;1654258;86;21790;-74
2022/09/19 02:55:12;;;;;;;;;;;;;;;9.88;100.00;98198.84;1654249;86;20462;-68
2022/09/19 02:57:47;;;;;;;;;;;;;;;9.88;100.00;98198.84;1635523;87;20179;-68
2022/09/19 03:00:14;;;;;;;;;;;;;;;9.87;100.00;98204.95;1654355;87;20196;-68
2022/09/19 03:02:45;;;;;;;;;;;;;;;9.87;100.00;98205.41;1654218;87;20186;-71
2022/09/19 03:05:15;;;;;;;;;;;;;;;9.87;100.00;98209.31;1651463;87;21131;-69
2022/09/19 03:07:48;;;;;;;;;;;;;;;9.88;100.00;98218.77;1654183;86;20203;-68
2022/09/19 03:10:19;;;;;;;;;;;;;;;9.87;100.00;98223.59;1654328;87;20178;-68
2022/09/19 03:13:01;;;;;;;;;;;;;;;9.88;100.00;98217.48;1651341;87;20226;-77
2022/09/19 03:15:41;;;;;;;;;;;;;;;9.86;100.00;98231.84;1654342;87;20175;-79
2022/09/19 03:18:10;;;;;;;;;;;;;;;9.86;100.00;98227.12;1653380;87;21123;-77
2022/09/19 03:20:39;;;;;;;;;;;;;;;9.85;100.00;98234.53;1631924;87;20213;-77
2022/09/19 03:23:07;;;;;;;;;;;;;;;9.84;100.00;98238.89;1654244;87;20187;-77
2022/09/19 03:25:37;;;;;;;;;;;;;;;9.84;100.00;98235.45;1654207;86;20171;-76
2022/09/19 03:28:04;;;;;;;;;;;;;;;9.82;100.00;98238.59;1654561;86;20187;-77
2022/09/19 03:30:30;;;;;;;;;;;;;;;9.82;100.00;98245.92;1635242;87;21050;-78
2022/09/19 03:32:59;;;;;;;;;;;;;;;9.82;100.00;98242.03;1654198;87;20239;-77
2022/09/19 03:35:25;;;;;;;;;;;;;;;9.83;100.00;98254.55;1656213;85;20182;-77
2022/09/19 03:37:52;;;;;;;;;;;;;;;9.82;100.00;98252.42;1677162;85;20145;-76
2022/09/19 03:40:22;;;;;;;;;;;;;;;9.83;100.00;98255.85;1677361;85;20879;-78
2022/09/19 03:42:51;;;;;;;;;;;;;;;9.81;100.00;98255.94;1677139;85;21231;-78
2022/09/19 03:45:17;;;;;;;;;;;;;;;9.82;100.00;98259.38;1677229;85;20213;-77
2022/09/19 03:47:43;;;;;;;;;;;;;;;9.82;100.00;98254.18;1677237;85;20146;-78
2022/09/19 03:50:10;;;;;;;;;;;;;;;9.84;100.00;98264.02;1677344;85;20541;-78
2022/09/19 03:52:38;;;;;;;;;;;;;;;9.83;100.00;98270.97;1675970;85;20135;-77
2022/09/19 03:55:05;;;;;;;;;;;;;;;9.84;100.00;98267.91;1677212;85;21751;-78
2022/09/19 03:57:33;;;;;;;;;;;;;;;9.86;100.00;98273.86;1676906;85;20138;-78
2022/09/19 04:00:01;;;;;;;;;;;;;;;9.86;100.00;98273.40;1677270;85;20150;-79
2022/09/19 04:02:30;;;;;;;;;;;;;;;9.88;100.00;98279.80;1676893;85;20162;-79
2022/09/19 04:04:57;;;;;;;;;;;;;;;9.89;100.00;98277.58;1677159;85;20213;-78
2022/09/19 04:07:24;;;;;;;;;;;;;;;9.90;100.00;98285.75;1677104;85;21124;-79
2022/09/19 04:09:51;;;;;;;;;;;;;;;9.90;100.00;98289.19;1677416;85;20173;-79
2022/09/19 04:12:18;;;;;;;;;;;;;;;9.93;100.00;98292.08;1677204;85;20146;-78
2022/09/19 04:14:45;;;;;;;;;;;;;;;9.96;100.00;98304.42;1677213;85;20170;-78
2022/09/19 04:17:13;;;;;;;;;;;;;;;9.98;100.00;98302.58;1677222;85;20130;-79
2022/09/19 04:19:42;;;;;;;;;;;;;;;10.02;100.00;98305.35;1677263;85;21177;-78
2022/09/19 04:22:13;;;;;;;;;;;;;;;10.03;100.00;98303.59;1657593;85;20454;-78
2022/09/19 04:24:42;;;;;;;;;;;;;;;10.04;100.00;98306.56;1676157;85;20162;-79
2022/09/19 04:27:23;;;;;;;;;;;;;;;10.04;100.00;98314.36;1654913;85;20141;-79
2022/09/19 04:29:50;;;;;;;;;;;;;;;10.02;100.00;98320.94;1677239;85;20441;-78
2022/09/19 04:32:16;;;;;;;;;;;;;;;10.02;100.00;98316.20;1677132;85;21045;-78
2022/09/19 04:34:43;;;;;;;;;;;;;;;10.03;100.00;98321.31;1677050;85;20145;-78
2022/09/19 04:37:15;;;;;;;;;;;;;;;10.05;100.00;98331.62;1676991;85;20149;-78
2022/09/19 04:39:40;;;;;;;;;;;;;;;10.08;100.00;98330.61;1676918;85;20146;-78
2022/09/19 04:42:06;;;;;;;;;;;;;;;10.09;100.00;98338.32;1677480;85;20177;-79
2022/09/19 04:44:33;;;;;;;;;;;;;;;10.12;100.00;98343.34;1677168;85;21160;-78
2022/09/19 04:47:06;;;;;;;;;;;;;;;10.16;100.00;98345.31;1676037;85;20426;-78
2022/09/19 04:49:38;;;;;;;;;;;;;;;10.19;99.99;98346.47;1677254;85;20192;-78
2022/09/19 04:52:04;;;;;;;;;;;;;;;10.21;99.69;98351.92;1677086;85;20441;-79
2022/09/19 04:54:35;;;;;;;;;;;;;;;10.26;99.23;98360.76;1677105;85;20156;-75
2022/09/19 04:56:58;;;;;;;;;;;;;;;10.28;98.68;98359.75;1676861;85;20575;-75
2022/09/19 04:59:25;;;;;;;;;;;;;;;10.32;98.51;98366.91;1676978;85;20150;-75
2022/09/19 05:01:52;;;;;;;;;;;;;;;10.37;97.67;98375.75;1676902;85;20138;-75
2022/09/19 05:04:18;;;;;;;;;;;;;;;10.39;97.53;98373.44;1677064;85;20170;-75
2022/09/19 05:06:45;;;;;;;;;;;;;;;10.45;97.24;98378.72;1677667;84;20137;-75
2022/09/19 05:09:12;;;;;;;;;;;;;;;10.49;96.78;98380.22;1701148;84;21148;-75
2022/09/19 05:11:49;;;;;;;;;;;;;;;10.51;95.84;98389.61;1686970;84;20198;-74
2022/09/19 05:14:18;;;;;;;;;;;;;;;10.54;94.97;98383.41;1675226;85;20174;-74
2022/09/19 05:16:47;;;;;;;;;;;;;;;10.55;94.56;98392.41;1674473;85;20174;-74
2022/09/19 05:19:13;;;;;;;;;;;;;;;10.56;93.09;98394.09;1674980;85;20453;-74
2022/09/19 05:21:40;;;;;;;;;;;;;;;10.58;93.07;98405.70;1671441;84;21054;-73
2022/09/19 05:24:08;;;;;;;;;;;;;;;10.58;92.48;98407.00;1633703;86;20166;-74
2022/09/19 05:26:37;;;;;;;;;;;;;;;10.62;91.87;98406.70;1646280;85;20175;-73
2022/09/19 05:29:05;;;;;;;;;;;;;;;10.66;91.16;98415.17;1646179;85;20472;-73
2022/09/19 05:31:35;;;;;;;;;;;;;;;10.71;90.51;98410.55;1645517;86;20173;-73
2022/09/19 05:34:03;;;;;;;;;;;;;;;10.76;90.23;98410.28;1666084;84;21210;-73
2022/09/19 05:36:33;;;;;;;;;;;;;;;10.82;89.90;98426.80;1702037;83;37728;-74
2022/09/19 05:39:07;;;;;;;;;;;;;;;10.85;89.53;98427.93;1684087;85;20455;-73
2022/09/19 05:41:38;;;;;;;;;;;;;;;10.90;88.84;98431.11;1681824;85;20182;-73
2022/09/19 05:44:23;;;;;;;;;;;;;;;10.94;88.87;98433.44;1677441;85;20165;-73
2022/09/19 05:47:03;;;;;;;;;;;;;;;10.98;88.59;98438.00;1688373;84;21563;-73
2022/09/19 05:49:31;;;;;;;;;;;;;;;11.03;88.45;98447.66;1687230;85;20151;-73
2022/09/19 05:53:51;;;;;;;;;;;;;;;11.07;88.76;98445.70;1689117;85;20211;-74
2022/09/19 05:54:27;;;;;;;;;;;;;;;11.16;88.41;98452.98;1686269;85;21019;-74
2022/09/19 05:56:56;;;;;;;;;;;;;;;11.21;87.71;98451.75;1687217;85;20486;-73
2022/09/19 05:59:31;;;;;;;;;;;;;;;11.22;87.18;98449.99;1678760;84;21403;-73
2022/09/19 06:02:01;;;;;;;;;;;;;;;11.23;87.03;98448.59;1679493;84;20208;-74
2022/09/19 06:04:36;;;;;;;;;;;;;;;11.29;87.17;98459.11;1678511;84;20167;-73
2022/09/19 06:07:04;;;;;;;;;;;;;;;11.36;86.57;98453.45;1672907;84;20184;-75
2022/09/19 06:09:32;;;;;;;;;;;;;;;11.46;86.84;98463.30;1692098;83;20189;-73
2022/09/19 06:11:59;;;;;;;;;;;;;;;11.60;86.53;98461.97;1661504;85;21779;-74
2022/09/19 06:14:27;;;;;;;;;;;;;;;11.76;85.78;98473.17;1688598;83;20167;-74
2022/09/19 06:16:55;;;;;;;;;;;;;;;11.91;85.41;98473.52;1674596;85;20168;-74
2022/09/19 06:19:26;;;;;;;;;;;;;;;12.04;84.50;98483.53;1680770;84;20257;-72
2022/09/19 06:21:55;;;;;;;;;;;;;;;12.13;83.51;98482.13;1679104;84;20208;-74
2022/09/19 06:24:24;;;;;;;;;;;;;;;12.22;83.32;98485.44;1676561;85;21145;-74
2022/09/19 06:26:56;;;;;;;;;;;;;;;12.33;82.91;98492.13;1688186;85;20158;-73
2022/09/19 06:29:24;;;;;;;;;;;;;;;12.38;82.38;98495.28;1682664;85;20202;-74
2022/09/19 06:31:53;;;;;;;;;;;;;;;12.44;82.36;98496.63;1671701;85;20214;-74
2022/09/19 06:34:21;;;;;;;;;;;;;;;12.50;81.61;98501.46;1673636;84;20169;-74
2022/09/19 06:36:47;;;;;;;;;;;;;;;12.53;81.02;98504.34;1638216;86;21258;-74
2022/09/19 06:39:14;;;;;;;;;;;;;;;12.54;80.94;98514.68;1652107;86;20182;-74
2022/09/19 06:41:47;;;;;;;;;;;;;;;12.61;81.30;98513.33;1620528;86;20148;-74
2022/09/19 06:44:33;;;;;;;;;;;;;;;12.72;80.54;98511.34;1633637;87;20173;-75
2022/09/19 06:47:06;;;;;;;;;;;;;;;12.84;79.16;98511.00;1639853;86;20186;-75
2022/09/19 06:49:35;;;;;;;;;;;;;;;12.88;78.60;98516.39;1632315;85;21336;-75
2022/09/19 06:52:06;;;;;;;;;;;;;;;12.94;77.14;98513.38;1619973;86;20490;-74
2022/09/19 06:54:34;;;;;;;;;;;;;;;12.98;76.33;98522.69;1642456;86;20508;-73
2022/09/19 06:57:00;;;;;;;;;;;;;;;13.01;76.44;98523.77;1631431;87;20360;-74
2022/09/19 06:59:27;;;;;;;;;;;;;;;13.04;76.16;98531.40;1629751;87;20178;-72
2022/09/19 07:01:54;;;;;;;;;;;;;;;13.11;75.73;98530.06;1631380;87;21166;-73
2022/09/19 07:04:21;;;;;;;;;;;;;;;13.18;75.94;98526.61;1623173;87;20134;-73
2022/09/19 07:06:56;;;;;;;;;;;;;;;13.26;75.55;98525.61;1620809;87;20192;-76
2022/09/19 07:09:24;;;;;;;;;;;;;;;13.29;74.45;98528.02;1629095;86;20194;-73
2022/09/19 07:11:53;;;;;;;;;;;;;;;13.27;74.32;98543.79;1635040;86;20498;-73
2022/09/19 07:14:19;;;;;;;;;;;;;;;13.26;74.08;98536.06;1658765;86;21146;-73
2022/09/19 07:16:46;;;;;;;;;;;;;;;13.27;74.12;98528.59;1641141;86;20397;-75
2022/09/19 07:19:13;;;;;;;;;;;;;;;13.30;74.04;98534.92;1626807;87;20178;-75
2022/09/19 07:21:41;;;;;;;;;;;;;;;13.26;73.59;98542.59;1630725;85;20216;-73
2022/09/19 07:24:09;;;;;;;;;;;;;;;13.26;73.66;98547.81;1637826;87;20209;-74
2022/09/19 07:26:38;;;;;;;;;;;;;;;13.32;72.94;98543.02;1635587;85;21127;-74
2022/09/19 07:29:04;;;;;;;;;;;;;;;13.34;72.88;98546.84;1631447;87;20179;-74
2022/09/19 07:31:31;;;;;;;;;;;;;;;13.33;73.21;98536.02;1628967;86;20674;-75
2022/09/19 07:33:58;;;;;;;;;;;;;;;13.35;74.18;98541.98;1635153;86;20165;-74
2022/09/19 07:36:27;;;;;;;;;;;;;;;13.39;73.29;98536.42;1631139;86;20192;-73
2022/09/19 07:38:53;;;;;;;;;;;;;;;13.42;71.61;98534.08;1659644;86;21272;-75
2022/09/19 07:41:25;;;;;;;;;;;;;;;13.40;71.83;98535.95;1683482;84;20997;-74
2022/09/19 07:43:56;;;;;;;;;;;;;;;13.42;71.11;98543.22;1671353;84;20198;-75
2022/09/19 07:47:26;;;;;;;;;;;;;;;13.48;69.97;98543.28;1665169;84;20174;-73
2022/09/19 07:49:10;;;;;;;;;;;;;;;13.54;70.34;98550.25;1656923;86;20435;-74
2022/09/19 07:51:55;;;;;;;;;;;;;;;13.68;69.61;98558.44;1667158;85;21167;-75
2022/09/19 07:54:24;;;;;;;;;;;;;;;13.75;68.00;98564.92;1661270;86;20168;-70
2022/09/19 07:56:51;;;;;;;;;;;;;;;13.80;67.70;98575.87;1661588;86;20323;-73
2022/09/19 07:59:17;;;;;;;;;;;;;;;13.85;67.73;98576.41;1667601;85;20157;-74
2022/09/19 08:01:57;;;;;;;;;;;;;;;13.95;68.90;98578.77;1668154;84;20254;-74
2022/09/19 08:04:29;;;;;;;;;;;;;;;14.06;68.63;98587.99;1670269;85;21182;-76
2022/09/19 08:06:57;;;;;;;;;;;;;;;14.10;67.90;98588.63;1670859;85;21171;-75
2022/09/19 08:09:24;;;;;;;;;;;;;;;14.12;68.81;98594.58;1641707;87;20191;-77
2022/09/19 08:11:57;;;;;;;;;;;;;;;14.15;67.71;98600.91;1667873;85;20168;-77
2022/09/19 08:14:25;;;;;;;;;;;;;;;14.17;67.75;98604.73;1662796;84;20174;-74
2022/09/19 08:16:53;;;;;;;;;;;;;;;14.12;67.82;98611.11;1668067;85;21910;-74
2022/09/19 08:19:20;;;;;;;;;;;;;;;14.04;68.32;98609.95;1667412;85;20201;-75
2022/09/19 08:21:46;;;;;;;;;;;;;;;13.99;68.62;98607.65;1647697;85;20177;-77
2022/09/19 08:24:13;;;;;;;;;;;;;;;14.02;68.79;98613.98;1652245;85;20140;-74
2022/09/19 08:26:39;;;;;;;;;;;;;;;14.14;68.83;98604.00;1659014;86;20217;-74
2022/09/19 08:29:08;;;;;;;;;;;;;;;14.29;68.56;98600.77;1666479;86;21211;-72
2022/09/19 08:31:37;;;;;;;;;;;;;;;14.42;68.59;98596.37;1665605;86;20180;-73
2022/09/19 08:34:03;;;;;;;;;;;;;;;14.51;67.91;98597.98;1666583;86;20259;-75
2022/09/19 08:36:30;;;;;;;;;;;;;;;14.54;66.53;98599.91;1667037;86;20626;-74
2022/09/19 08:38:57;;;;;;;;;;;;;;;14.56;65.42;98607.19;1663737;86;20169;-73
2022/09/19 08:41:28;;;;;;;;;;;;;;;14.63;66.39;98606.25;1660501;85;21899;-73
2022/09/19 08:44:25;;;;;;;;;;;;;;;14.73;64.62;98602.88;1676806;84;20181;-73
2022/09/19 08:47:08;;;;;;;;;;;;;;;14.73;65.10;98609.89;1687543;84;20198;-71
2022/09/19 08:49:38;;;;;;;;;;;;;;;14.69;65.21;98599.28;1645524;86;20179;-73
2022/09/19 08:52:12;;;;;;;;;;;;;;;14.65;64.55;98592.59;1635467;87;20234;-72
2022/09/19 08:54:43;;;;;;;;;;;;;;;14.74;64.73;98591.47;1641215;87;20168;-71
2022/09/19 08:57:25;;;;;;;;;;;;;;;14.90;64.29;98591.18;1660059;84;20181;-71
2022/09/19 08:59:54;;;;;;;;;;;;;;;15.02;63.58;98591.58;1675804;84;20170;-73
2022/09/19 09:02:37;;;;;;;;;;;;;;;15.10;64.02;98592.34;1653651;86;20254;-73
2022/09/19 09:05:07;;;;;;;;;;;;;;;15.21;63.48;98591.05;1644485;86;20177;-72
2022/09/19 09:07:41;;;;;;;;;;;;;;;15.36;62.55;98599.58;1644338;87;20988;-74
2022/09/19 09:10:50;;;;;;;;;;;;;;;15.49;62.44;98597.70;1614928;87;20183;-71
2022/09/19 09:13:51;;;;;;;;;;;;;;;15.59;61.14;98590.83;1642453;87;20179;-71
2022/09/19 09:16:25;;;;;;;;;;;;;;;15.55;60.81;98604.27;1642315;87;20198;-73
2022/09/19 09:19:17;;;;;;;;;;;;;;;15.51;61.42;98606.28;1668426;84;20226;-75
2022/09/19 09:21:49;;;;;;;;;;;;;;;15.59;61.61;98596.07;1652111;84;21023;-75
2022/09/19 09:24:20;;;;;;;;;;;;;;;15.77;60.67;98609.13;1647964;85;20466;-72
2022/09/19 09:26:49;;;;;;;;;;;;;;;15.90;59.45;98605.55;1694203;84;20190;-72
2022/09/19 09:29:28;;;;;;;;;;;;;;;15.92;59.08;98607.58;1691351;84;20233;-71
2022/09/19 09:32:15;;;;;;;;;;;;;;;15.94;57.78;98613.55;1682134;84;20184;-73
2022/09/19 09:34:59;;;;;;;;;;;;;;;15.90;56.46;98615.56;1671383;85;21186;-72
2022/09/19 09:37:39;;;;;;;;;;;;;;;15.78;56.34;98620.44;1640436;87;20182;-73
2022/09/19 09:43:09;;;;;;;;;;;;;;;15.57;58.33;98629.45;1628247;88;20213;-73
2022/09/19 09:45:48;;;;;;;;;;;;;;;15.66;57.96;98631.36;1657097;86;20213;-73
2022/09/19 09:48:26;;;;;;;;;;;;;;;15.77;56.72;98630.57;1628477;88;21234;-73
2022/09/19 09:51:06;;;;;;;;;;;;;;;15.78;56.66;98634.39;1656932;86;20201;-73
2022/09/19 09:53:56;;;;;;;;;;;;;;;15.77;56.51;98634.50;1628701;88;20218;-73
2022/09/19 09:56:29;;;;;;;;;;;;;;;15.73;57.22;98652.72;1656804;86;20177;-73
2022/09/19 09:59:05;;;;;;;;;;;;;;;15.72;56.15;98665.47;1629278;87;20496;-73
2022/09/19 10:04:45;;;;;;;;;;;;;;;15.61;55.71;98666.25;1655875;86;20146;-73
2022/09/19 10:07:23;;;;;;;;;;;;;;;15.64;55.52;98660.78;1657516;84;20366;-74
2022/09/19 10:09:57;;;;;;;;;;;;;;;15.77;55.73;98665.48;1678216;85;20171;-73
2022/09/19 10:12:26;;;;;;;;;;;;;;;15.95;53.34;98663.26;1679278;85;20478;-73
2022/09/19 10:14:55;;;;;;;;;;;;;;;16.06;52.73;98680.31;1678810;85;21098;-72
2022/09/19 10:17:23;;;;;;;;;;;;;;;16.09;52.67;98677.94;1638864;85;20482;-73
2022/09/19 10:19:53;;;;;;;;;;;;;;;16.14;53.06;98685.82;1678541;85;20507;-72
2022/09/19 10:22:22;;;;;;;;;;;;;;;16.21;51.67;98686.16;1683935;85;20494;-73
2022/09/19 10:24:55;;;;;;;;;;;;;;;16.24;51.99;98673.29;1648737;85;20205;-73
2022/09/19 10:27:33;;;;;;;;;;;;;;;16.31;50.51;98684.99;1642179;86;21932;-75
2022/09/19 10:30:06;;;;;;;;;;;;;;;16.35;49.55;98670.69;1622155;86;20282;-75
2022/09/19 10:32:37;;;;;;;;;;;;;;;16.41;50.31;98674.95;1611090;88;20483;-74
2022/09/19 10:35:26;;;;;;;;;;;;;;;16.46;49.77;98685.11;1623730;88;20518;-74
2022/09/19 10:38:15;;;;;;;;;;;;;;;16.48;49.79;98685.83;1614749;87;20186;-74
2022/09/19 10:40:58;;;;;;;;;;;;;;;16.50;49.42;98688.70;1644047;87;21839;-75
2022/09/19 10:43:33;;;;;;;;;;;;;;;16.52;49.15;98685.47;1677903;84;20203;-72
2022/09/19 10:46:05;;;;;;;;;;;;;;;16.55;49.27;98676.53;1644766;87;20526;-73
2022/09/19 10:48:35;;;;;;;;;;;;;;;16.62;49.41;98686.88;1646013;85;20392;-73
2022/09/19 10:51:09;;;;;;;;;;;;;;;16.71;50.32;98683.58;1637427;87;20186;-73
2022/09/19 10:53:38;;;;;;;;;;;;;;;16.79;50.19;98688.20;1636836;85;21771;-72
2022/09/19 10:56:12;;;;;;;;;;;;;;;16.80;48.85;98690.72;1628419;87;20437;-74
2022/09/19 10:58:41;;;;;;;;;;;;;;;16.70;49.13;98698.14;1613507;89;20206;-73
2022/09/19 11:01:21;;;;;;;;;;;;;;;16.50;49.02;98707.55;1615748;87;20526;-73
2022/09/19 11:04:04;;;;;;;;;;;;;;;16.26;49.75;98721.23;1631377;86;20483;-74
2022/09/19 11:06:32;;;;;;;;;;;;;;;16.08;50.62;98716.92;1647482;86;21811;-74
2022/09/19 11:09:00;;;;;;;;;;;;;;;16.01;50.97;98708.66;1635980;85;20154;-73
2022/09/19 11:11:45;;;;;;;;;;;;;;;16.01;51.40;98705.20;1655268;84;20178;-73
2022/09/19 11:14:16;;;;;;;;;;;;;;;16.08;51.47;98705.11;1672109;85;20583;-74
2022/09/19 11:17:02;;;;;;;;;;;;;;;16.16;50.37;98702.75;1638692;87;20154;-73
2022/09/19 11:19:38;;;;;;;;;;;;;;;16.15;49.58;98696.67;1662360;84;21140;-74
2022/09/19 11:22:28;;;;;;;;;;;;;;;16.03;50.06;98707.24;1674726;85;20170;-73
2022/09/19 11:24:58;;;;;;;;;;;;;;;15.86;50.98;98711.14;1672795;85;20183;-73
2022/09/19 11:27:46;;;;;;;;;;;;;;;15.81;50.55;98706.70;1641372;85;20497;-73
2022/09/19 11:30:16;;;;;;;;;;;;;;;15.79;49.66;98711.23;1669569;84;20631;-73
2022/09/19 11:33:04;;;;;;;;;;;;;;;15.78;49.52;98712.21;1668943;86;21168;-72
2022/09/19 11:35:53;;;;;;;;;;;;;;;15.81;49.83;98705.39;1692345;83;20175;-72
2022/09/19 11:38:36;;;;;;;;;;;;;;;15.82;49.65;98713.63;1668860;85;20182;-72
2022/09/19 11:41:26;;;;;;;;;;;;;;;15.82;49.30;98711.84;1687653;85;20167;-72
2022/09/19 11:44:14;;;;;;;;;;;;;;;15.87;49.43;98719.38;1669558;85;20166;-72
2022/09/19 11:47:06;;;;;;;;;;;;;;;15.92;50.07;98721.18;1688672;84;21910;-72
2022/09/19 11:49:59;;;;;;;;;;;;;;;15.97;49.56;98711.19;1677830;85;20266;-73
2022/09/19 11:52:56;;;;;;;;;;;;;;;16.03;50.38;98713.80;1690267;83;20978;-73
2022/09/19 11:55:37;;;;;;;;;;;;;;;16.07;50.96;98717.39;1681868;85;20187;-74
2022/09/19 11:58:12;;;;;;;;;;;;;;;16.14;51.71;98717.77;1667985;85;20179;-73
2022/09/19 12:00:52;;;;;;;;;;;;;;;16.23;51.61;98719.68;1668024;86;21142;-73
2022/09/19 12:03:25;;;;;;;;;;;;;;;16.33;50.48;98721.14;1655418;85;20189;-73
2022/09/19 12:06:09;;;;;;;;;;;;;;;16.40;50.09;98717.06;1686853;85;20275;-72
2022/09/19 12:08:55;;;;;;;;;;;;;;;16.49;49.29;98719.00;1688977;84;20199;-73
2022/09/19 12:11:23;;;;;;;;;;;;;;;16.59;49.45;98711.23;1684857;84;20672;-73
2022/09/19 12:13:54;;;;;;;;;;;;;;;16.69;48.87;98714.38;1678452;85;21460;-73
2022/09/19 12:16:24;;;;;;;;;;;;;;;16.67;49.09;98715.44;1678954;85;20143;-73
2022/09/19 12:18:55;;;;;;;;;;;;;;;16.63;49.17;98709.59;1676945;85;20210;-74
2022/09/19 12:21:23;;;;;;;;;;;;;;;16.61;49.13;98722.45;1665298;85;20145;-74
2022/09/19 12:26:49;;;;;;;;;;;;;;;16.61;50.29;98721.97;1653977;86;21834;-73
2022/09/19 12:29:34;;;;;;;;;;;;;;;16.67;49.26;98729.41;1688235;84;20277;-72
2022/09/19 12:32:22;;;;;;;;;;;;;;;16.63;49.00;98739.78;1684282;84;20194;-73
2022/09/19 12:34:59;;;;;;;;;;;;;;;16.58;48.76;98742.40;1686113;84;20908;-73
2022/09/19 12:37:30;;;;;;;;;;;;;;;16.54;49.25;98747.88;1642251;85;20172;-73
2022/09/19 12:40:22;;;;;;;;;;;;;;;16.52;49.02;98751.09;1639627;86;21235;-74
2022/09/19 12:43:06;;;;;;;;;;;;;;;16.47;49.22;98747.98;1630458;88;20587;-73
2022/09/19 12:45:38;;;;;;;;;;;;;;;16.40;50.01;98755.12;1644370;86;20945;-73
2022/09/19 12:48:15;;;;;;;;;;;;;;;16.36;50.65;98766.83;1636491;87;20194;-74
2022/09/19 12:50:56;;;;;;;;;;;;;;;16.33;50.43;98769.69;1628144;87;20514;-72
2022/09/19 12:53:43;;;;;;;;;;;;;;;16.28;50.34;98762.16;1613310;88;21160;-73
2022/09/19 12:56:28;;;;;;;;;;;;;;;16.28;50.16;98762.62;1633755;86;20267;-71
2022/09/19 12:59:18;;;;;;;;;;;;;;;16.23;50.12;98753.79;1633550;86;20138;-72
2022/09/19 13:01:48;;;;;;;;;;;;;;;16.16;50.92;98742.94;1637165;87;20770;-72
2022/09/19 13:04:25;;;;;;;;;;;;;;;16.17;51.67;98745.09;1637813;87;20162;-72
2022/09/19 13:06:54;;;;;;;;;;;;;;;16.27;51.84;98748.67;1627183;87;21262;-74
2022/09/19 13:09:26;;;;;;;;;;;;;;;16.41;51.86;98752.86;1631187;88;20224;-72
2022/09/19 13:11:58;;;;;;;;;;;;;;;16.55;50.86;98757.91;1631639;87;20175;-73
2022/09/19 13:14:44;;;;;;;;;;;;;;;16.63;50.45;98761.23;1635816;87;20655;-72
2022/09/19 13:25:35;;;;;;;;;;;;;;;16.65;49.34;98771.17;1630401;87;20187;-75
2022/09/19 13:28:22;;;;;;;;;;;;;;;16.52;49.27;98781.77;1633511;86;20243;-73
2022/09/19 13:31:03;;;;;;;;;;;;;;;16.41;49.23;98789.61;1608292;88;20216;-73
2022/09/19 13:33:44;;;;;;;;;;;;;;;16.27;49.69;98791.13;1623617;87;21175;-72
2022/09/19 13:36:14;;;;;;;;;;;;;;;16.20;50.34;98797.31;1634196;87;20227;-73
2022/09/19 13:38:43;;;;;;;;;;;;;;;16.14;50.50;98796.48;1633519;86;20160;-75